sensor_id;sensor_type;location;lat;lon;timestamp;pressure;altitude;pressure_sealevel;temperature;humidity
40570;BME280;26270;34.428;-119.710;2023-02-14T00:02:27;101042.33;;;17.09;54.00
40570;BME280;26270;34.428;-119.710;2023-02-14T00:04:56;101033.99;;;17.16;53.41
40570;BME280;26270;34.428;-119.710;2023-02-14T00:07:24;101035.42;;;17.38;53.95
40570;BME280;26270;34.428;-119.710;2023-02-14T00:09:52;101039.16;;;17.14;54.08
40570;BME280;26270;34.428;-119.710;2023-02-14T00:12:21;101032.73;;;17.41;52.99
40570;BME280;26270;34.428;-119.710;2023-02-14T00:14:49;101026.76;;;17.16;52.77
40570;BME280;26270;34.428;-119.710;2023-02-14T00:17:18;101015.19;;;17.25;52.50
40570;BME280;26270;34.428;-119.710;2023-02-14T00:19:45;101015.65;;;17.40;52.52
40570;BME280;26270;34.428;-119.710;2023-02-14T00:22:14;101012.02;;;17.27;52.37
40570;BME280;26270;34.428;-119.710;2023-02-14T00:24:42;101003.17;;;17.18;52.73
40570;BME280;26270;34.428;-119.710;2023-02-14T00:27:10;101004.52;;;17.22;52.89
40570;BME280;26270;34.428;-119.710;2023-02-14T00:29:39;101012.73;;;17.26;52.78
40570;BME280;26270;34.428;-119.710;2023-02-14T00:32:07;101014.53;;;17.19;52.98
40570;BME280;26270;34.428;-119.710;2023-02-14T00:34:35;101009.58;;;17.09;53.07
40570;BME280;26270;34.428;-119.710;2023-02-14T00:37:04;101012.12;;;17.11;52.91
40570;BME280;26270;34.428;-119.710;2023-02-14T00:39:32;101022.00;;;17.18;51.88
40570;BME280;26270;34.428;-119.710;2023-02-14T00:42:00;101025.78;;;17.15;52.31
40570;BME280;26270;34.428;-119.710;2023-02-14T00:44:29;101027.05;;;16.96;53.07
40570;BME280;26270;34.428;-119.710;2023-02-14T00:46:57;101029.49;;;16.75;53.14
40570;BME280;26270;34.428;-119.710;2023-02-14T00:49:25;101031.51;;;16.76;52.62
40570;BME280;26270;34.428;-119.710;2023-02-14T00:51:53;101028.26;;;16.77;52.64
40570;BME280;26270;34.428;-119.710;2023-02-14T00:54:21;101029.19;;;16.83;52.03
40570;BME280;26270;34.428;-119.710;2023-02-14T00:56:50;101022.79;;;16.94;52.03
40570;BME280;26270;34.428;-119.710;2023-02-14T00:59:19;101021.18;;;16.92;52.01
40570;BME280;26270;34.428;-119.710;2023-02-14T01:01:47;101020.39;;;16.70;52.00
40570;BME280;26270;34.428;-119.710;2023-02-14T01:04:16;101016.23;;;16.76;51.95
40570;BME280;26270;34.428;-119.710;2023-02-14T01:06:44;101010.72;;;16.60;51.95
40570;BME280;26270;34.428;-119.710;2023-02-14T01:09:12;101008.86;;;16.59;51.66
40570;BME280;26270;34.428;-119.710;2023-02-14T01:11:41;101007.50;;;16.63;51.52
40570;BME280;26270;34.428;-119.710;2023-02-14T01:14:09;101012.02;;;16.54;52.17
40570;BME280;26270;34.428;-119.710;2023-02-14T01:16:38;101014.55;;;16.48;52.33
40570;BME280;26270;34.428;-119.710;2023-02-14T01:19:07;101021.09;;;16.47;52.96
40570;BME280;26270;34.428;-119.710;2023-02-14T01:21:35;101021.93;;;16.29;52.83
40570;BME280;26270;34.428;-119.710;2023-02-14T01:24:05;101025.12;;;16.16;53.39
40570;BME280;26270;34.428;-119.710;2023-02-14T01:26:35;101027.67;;;16.14;53.61
40570;BME280;26270;34.428;-119.710;2023-02-14T01:29:04;101032.51;;;16.04;53.59
40570;BME280;26270;34.428;-119.710;2023-02-14T01:31:33;101034.52;;;16.17;53.58
40570;BME280;26270;34.428;-119.710;2023-02-14T01:34:02;101040.34;;;16.19;52.35
40570;BME280;26270;34.428;-119.710;2023-02-14T01:36:32;101045.57;;;15.99;52.06
40570;BME280;26270;34.428;-119.710;2023-02-14T01:39:04;101052.66;;;15.95;52.59
40570;BME280;26270;34.428;-119.710;2023-02-14T01:41:34;101055.21;;;15.92;52.98
40570;BME280;26270;34.428;-119.710;2023-02-14T01:44:05;101065.34;;;15.97;53.65
40570;BME280;26270;34.428;-119.710;2023-02-14T01:46:34;101065.73;;;15.90;53.53
40570;BME280;26270;34.428;-119.710;2023-02-14T01:49:09;101069.60;;;15.84;53.84
40570;BME280;26270;34.428;-119.710;2023-02-14T01:51:42;101070.53;;;15.84;54.28
40570;BME280;26270;34.428;-119.710;2023-02-14T01:54:11;101070.01;;;15.68;54.34
40570;BME280;26270;34.428;-119.710;2023-02-14T01:56:42;101068.06;;;15.62;54.22
40570;BME280;26270;34.428;-119.710;2023-02-14T01:59:17;101067.61;;;15.68;54.30
40570;BME280;26270;34.428;-119.710;2023-02-14T02:01:49;101072.34;;;15.79;53.46
40570;BME280;26270;34.428;-119.710;2023-02-14T02:04:29;101075.59;;;15.87;53.44
40570;BME280;26270;34.428;-119.710;2023-02-14T02:07:03;101068.70;;;15.85;53.11
40570;BME280;26270;34.428;-119.710;2023-02-14T02:09:34;101068.61;;;15.75;53.03
40570;BME280;26270;34.428;-119.710;2023-02-14T02:12:04;101068.89;;;15.61;53.34
40570;BME280;26270;34.428;-119.710;2023-02-14T02:14:33;101069.97;;;15.78;53.30
40570;BME280;26270;34.428;-119.710;2023-02-14T02:17:13;101077.53;;;15.62;53.78
40570;BME280;26270;34.428;-119.710;2023-02-14T02:20:11;101080.07;;;15.69;53.20
40570;BME280;26270;34.428;-119.710;2023-02-14T02:23:07;101086.63;;;15.63;54.29
40570;BME280;26270;34.428;-119.710;2023-02-14T02:25:59;101088.50;;;15.55;54.57
40570;BME280;26270;34.428;-119.710;2023-02-14T02:29:04;101091.07;;;15.51;54.95
40570;BME280;26270;34.428;-119.710;2023-02-14T02:31:53;101091.83;;;15.42;55.04
40570;BME280;26270;34.428;-119.710;2023-02-14T02:37:02;101096.44;;;15.27;56.07
40570;BME280;26270;34.428;-119.710;2023-02-14T02:39:47;101100.17;;;15.20;56.47
40570;BME280;26270;34.428;-119.710;2023-02-14T02:42:23;101103.17;;;15.37;56.62
40570;BME280;26270;34.428;-119.710;2023-02-14T02:45:01;101101.13;;;15.39;56.80
40570;BME280;26270;34.428;-119.710;2023-02-14T02:47:39;101103.84;;;15.22;57.84
40570;BME280;26270;34.428;-119.710;2023-02-14T02:50:18;101097.68;;;15.22;58.07
40570;BME280;26270;34.428;-119.710;2023-02-14T02:52:50;101090.71;;;15.27;57.95
40570;BME280;26270;34.428;-119.710;2023-02-14T02:55:24;101093.24;;;15.36;58.00
40570;BME280;26270;34.428;-119.710;2023-02-14T02:57:54;101097.32;;;15.44;57.86
40570;BME280;26270;34.428;-119.710;2023-02-14T03:00:24;101098.73;;;15.21;57.67
40570;BME280;26270;34.428;-119.710;2023-02-14T03:02:55;101100.13;;;15.33;57.10
40570;BME280;26270;34.428;-119.710;2023-02-14T03:05:24;101097.32;;;15.44;55.85
40570;BME280;26270;34.428;-119.710;2023-02-14T03:07:54;101091.88;;;15.18;56.21
40570;BME280;26270;34.428;-119.710;2023-02-14T03:10:25;101088.92;;;15.27;55.77
40570;BME280;26270;34.428;-119.710;2023-02-14T03:13:18;101087.87;;;15.31;56.32
40570;BME280;26270;34.428;-119.710;2023-02-14T03:16:05;101085.11;;;15.21;55.99
40570;BME280;26270;34.428;-119.710;2023-02-14T03:18:45;101080.82;;;15.33;55.62
40570;BME280;26270;34.428;-119.710;2023-02-14T03:21:27;101080.39;;;15.41;55.62
40570;BME280;26270;34.428;-119.710;2023-02-14T03:24:04;101094.93;;;15.45;55.48
40570;BME280;26270;34.428;-119.710;2023-02-14T03:26:38;101101.82;;;15.33;55.56
40570;BME280;26270;34.428;-119.710;2023-02-14T03:29:17;101105.14;;;15.33;55.72
40570;BME280;26270;34.428;-119.710;2023-02-14T03:31:56;101104.44;;;15.23;55.66
40570;BME280;26270;34.428;-119.710;2023-02-14T03:34:34;101109.99;;;15.41;55.96
40570;BME280;26270;34.428;-119.710;2023-02-14T03:37:09;101123.37;;;15.14;56.29
40570;BME280;26270;34.428;-119.710;2023-02-14T03:39:44;101128.09;;;15.26;56.32
40570;BME280;26270;34.428;-119.710;2023-02-14T03:42:19;101137.75;;;14.90;56.53
40570;BME280;26270;34.428;-119.710;2023-02-14T03:44:51;101145.55;;;15.27;56.09
40570;BME280;26270;34.428;-119.710;2023-02-14T03:47:23;101144.66;;;15.16;56.14
40570;BME280;26270;34.428;-119.710;2023-02-14T03:49:57;101150.23;;;15.08;56.45
40570;BME280;26270;34.428;-119.710;2023-02-14T03:52:29;101157.80;;;15.40;56.04
40570;BME280;26270;34.428;-119.710;2023-02-14T03:54:59;101160.09;;;15.18;55.81
40570;BME280;26270;34.428;-119.710;2023-02-14T03:57:33;101168.16;;;15.38;55.62
40570;BME280;26270;34.428;-119.710;2023-02-14T04:00:05;101184.14;;;15.36;55.82
40570;BME280;26270;34.428;-119.710;2023-02-14T04:02:36;101185.80;;;15.24;55.94
40570;BME280;26270;34.428;-119.710;2023-02-14T04:05:11;101187.18;;;15.25;56.09
40570;BME280;26270;34.428;-119.710;2023-02-14T04:07:45;101192.42;;;15.42;56.11
40570;BME280;26270;34.428;-119.710;2023-02-14T04:10:14;101198.57;;;15.17;56.51
40570;BME280;26270;34.428;-119.710;2023-02-14T04:12:42;101196.68;;;15.38;56.97
40570;BME280;26270;34.428;-119.710;2023-02-14T04:15:12;101186.42;;;15.47;56.43
40570;BME280;26270;34.428;-119.710;2023-02-14T04:17:40;101179.41;;;15.46;56.90
40570;BME280;26270;34.428;-119.710;2023-02-14T04:20:09;101181.51;;;15.41;56.44
40570;BME280;26270;34.428;-119.710;2023-02-14T04:22:37;101182.31;;;15.26;56.75
40570;BME280;26270;34.428;-119.710;2023-02-14T04:25:05;101169.91;;;15.36;56.93
40570;BME280;26270;34.428;-119.710;2023-02-14T04:27:33;101171.42;;;15.23;56.93
40570;BME280;26270;34.428;-119.710;2023-02-14T04:30:02;101162.64;;;15.14;57.14
40570;BME280;26270;34.428;-119.710;2023-02-14T04:32:29;101161.05;;;15.01;57.69
40570;BME280;26270;34.428;-119.710;2023-02-14T04:34:58;101153.34;;;15.02;57.94
40570;BME280;26270;34.428;-119.710;2023-02-14T04:37:26;101152.01;;;15.19;57.71
40570;BME280;26270;34.428;-119.710;2023-02-14T04:39:54;101148.28;;;15.22;57.41
40570;BME280;26270;34.428;-119.710;2023-02-14T04:42:22;101150.04;;;15.29;57.93
40570;BME280;26270;34.428;-119.710;2023-02-14T04:44:51;101159.46;;;15.16;57.42
40570;BME280;26270;34.428;-119.710;2023-02-14T04:47:19;101173.85;;;15.51;56.42
40570;BME280;26270;34.428;-119.710;2023-02-14T04:49:48;101177.03;;;15.49;56.95
40570;BME280;26270;34.428;-119.710;2023-02-14T04:52:16;101187.79;;;15.17;57.46
40570;BME280;26270;34.428;-119.710;2023-02-14T04:54:44;101195.88;;;15.17;57.58
40570;BME280;26270;34.428;-119.710;2023-02-14T04:57:12;101195.97;;;15.25;57.62
40570;BME280;26270;34.428;-119.710;2023-02-14T04:59:40;101196.38;;;15.38;57.71
40570;BME280;26270;34.428;-119.710;2023-02-14T05:03:20;101195.83;;;15.51;57.60
40570;BME280;26270;34.428;-119.710;2023-02-14T05:05:48;101194.97;;;15.39;57.30
40570;BME280;26270;34.428;-119.710;2023-02-14T05:08:16;101195.71;;;15.47;57.89
40570;BME280;26270;34.428;-119.710;2023-02-14T05:10:45;101205.21;;;15.39;57.06
40570;BME280;26270;34.428;-119.710;2023-02-14T05:13:13;101210.54;;;15.56;56.52
40570;BME280;26270;34.428;-119.710;2023-02-14T05:15:41;101210.71;;;15.16;57.65
40570;BME280;26270;34.428;-119.710;2023-02-14T05:18:10;101207.51;;;15.16;57.98
40570;BME280;26270;34.428;-119.710;2023-02-14T05:20:38;101200.25;;;15.34;57.99
40570;BME280;26270;34.428;-119.710;2023-02-14T05:23:06;101196.92;;;15.39;58.04
40570;BME280;26270;34.428;-119.710;2023-02-14T05:25:34;101192.83;;;15.21;57.91
40570;BME280;26270;34.428;-119.710;2023-02-14T05:28:02;101187.88;;;15.32;57.72
40570;BME280;26270;34.428;-119.710;2023-02-14T05:30:30;101184.96;;;15.34;57.45
40570;BME280;26270;34.428;-119.710;2023-02-14T05:33:00;101185.68;;;15.34;57.35
40570;BME280;26270;34.428;-119.710;2023-02-14T05:35:28;101186.07;;;15.05;58.27
40570;BME280;26270;34.428;-119.710;2023-02-14T05:37:55;101187.53;;;15.08;58.03
40570;BME280;26270;34.428;-119.710;2023-02-14T05:40:23;101184.52;;;15.08;57.68
40570;BME280;26270;34.428;-119.710;2023-02-14T05:42:52;101183.33;;;15.21;57.58
40570;BME280;26270;34.428;-119.710;2023-02-14T05:45:21;101188.11;;;15.19;57.68
40570;BME280;26270;34.428;-119.710;2023-02-14T05:47:50;101192.89;;;14.99;57.90
40570;BME280;26270;34.428;-119.710;2023-02-14T05:50:18;101197.87;;;15.06;58.03
40570;BME280;26270;34.428;-119.710;2023-02-14T05:52:47;101200.45;;;15.03;57.95
40570;BME280;26270;34.428;-119.710;2023-02-14T05:55:15;101202.48;;;14.94;58.48
40570;BME280;26270;34.428;-119.710;2023-02-14T05:57:44;101208.65;;;14.83;59.27
40570;BME280;26270;34.428;-119.710;2023-02-14T06:00:13;101213.68;;;14.93;59.09
40570;BME280;26270;34.428;-119.710;2023-02-14T06:02:41;101209.54;;;14.96;58.58
40570;BME280;26270;34.428;-119.710;2023-02-14T06:05:10;101207.91;;;14.82;58.74
40570;BME280;26270;34.428;-119.710;2023-02-14T06:07:38;101211.47;;;14.96;58.08
40570;BME280;26270;34.428;-119.710;2023-02-14T06:10:08;101201.42;;;14.92;57.93
40570;BME280;26270;34.428;-119.710;2023-02-14T06:12:36;101194.82;;;15.16;56.78
40570;BME280;26270;34.428;-119.710;2023-02-14T06:15:04;101199.10;;;14.88;57.53
40570;BME280;26270;34.428;-119.710;2023-02-14T06:17:32;101199.63;;;15.07;56.87
40570;BME280;26270;34.428;-119.710;2023-02-14T06:20:00;101196.82;;;15.11;56.68
40570;BME280;26270;34.428;-119.710;2023-02-14T06:22:28;101200.63;;;15.10;56.65
40570;BME280;26270;34.428;-119.710;2023-02-14T06:24:56;101203.95;;;14.67;56.71
40570;BME280;26270;34.428;-119.710;2023-02-14T06:27:24;101203.63;;;14.74;56.68
40570;BME280;26270;34.428;-119.710;2023-02-14T06:29:52;101204.58;;;14.75;56.16
40570;BME280;26270;34.428;-119.710;2023-02-14T06:32:20;101210.62;;;14.87;55.87
40570;BME280;26270;34.428;-119.710;2023-02-14T06:34:48;101212.93;;;14.97;55.53
40570;BME280;26270;34.428;-119.710;2023-02-14T06:37:16;101212.71;;;14.91;55.22
40570;BME280;26270;34.428;-119.710;2023-02-14T06:39:45;101208.62;;;14.84;55.36
40570;BME280;26270;34.428;-119.710;2023-02-14T06:42:13;101204.52;;;14.61;55.32
40570;BME280;26270;34.428;-119.710;2023-02-14T06:44:41;101203.28;;;14.84;54.37
40570;BME280;26270;34.428;-119.710;2023-02-14T06:47:09;101210.15;;;14.70;54.67
40570;BME280;26270;34.428;-119.710;2023-02-14T06:49:38;101216.72;;;14.87;54.16
40570;BME280;26270;34.428;-119.710;2023-02-14T06:52:06;101213.26;;;14.87;53.78
40570;BME280;26270;34.428;-119.710;2023-02-14T06:54:34;101214.12;;;14.85;53.61
40570;BME280;26270;34.428;-119.710;2023-02-14T06:57:03;101219.89;;;14.97;53.04
40570;BME280;26270;34.428;-119.710;2023-02-14T06:59:31;101226.11;;;14.88;53.26
40570;BME280;26270;34.428;-119.710;2023-02-14T07:02:00;101221.39;;;14.88;53.63
40570;BME280;26270;34.428;-119.710;2023-02-14T07:04:28;101217.83;;;14.62;53.94
40570;BME280;26270;34.428;-119.710;2023-02-14T07:06:56;101211.48;;;14.77;52.89
40570;BME280;26270;34.428;-119.710;2023-02-14T07:09:25;101200.95;;;14.76;52.86
40570;BME280;26270;34.428;-119.710;2023-02-14T07:11:53;101199.03;;;14.87;52.94
40570;BME280;26270;34.428;-119.710;2023-02-14T07:14:21;101202.61;;;14.74;52.93
40570;BME280;26270;34.428;-119.710;2023-02-14T07:16:54;101201.75;;;14.74;52.73
40570;BME280;26270;34.428;-119.710;2023-02-14T07:19:22;101200.24;;;14.74;52.93
40570;BME280;26270;34.428;-119.710;2023-02-14T07:21:51;101193.77;;;14.65;53.20
40570;BME280;26270;34.428;-119.710;2023-02-14T07:24:19;101194.09;;;14.77;53.07
40570;BME280;26270;34.428;-119.710;2023-02-14T07:26:47;101194.84;;;14.74;52.75
40570;BME280;26270;34.428;-119.710;2023-02-14T07:29:15;101185.76;;;14.56;53.24
40570;BME280;26270;34.428;-119.710;2023-02-14T07:31:42;101185.01;;;14.69;52.98
40570;BME280;26270;34.428;-119.710;2023-02-14T07:34:11;101187.24;;;14.65;53.24
40570;BME280;26270;34.428;-119.710;2023-02-14T07:36:39;101189.84;;;14.52;53.36
40570;BME280;26270;34.428;-119.710;2023-02-14T07:39:07;101194.65;;;14.56;53.21
40570;BME280;26270;34.428;-119.710;2023-02-14T07:41:34;101188.54;;;14.82;52.39
40570;BME280;26270;34.428;-119.710;2023-02-14T07:44:02;101185.15;;;14.80;52.51
40570;BME280;26270;34.428;-119.710;2023-02-14T07:46:30;101189.59;;;14.49;52.97
40570;BME280;26270;34.428;-119.710;2023-02-14T07:48:58;101182.29;;;14.57;52.56
40570;BME280;26270;34.428;-119.710;2023-02-14T07:51:27;101174.93;;;14.62;52.33
40570;BME280;26270;34.428;-119.710;2023-02-14T07:53:55;101182.49;;;14.64;52.70
40570;BME280;26270;34.428;-119.710;2023-02-14T07:56:24;101190.58;;;14.66;52.66
40570;BME280;26270;34.428;-119.710;2023-02-14T07:58:52;101192.69;;;14.54;52.86
40570;BME280;26270;34.428;-119.710;2023-02-14T08:01:21;101192.02;;;14.80;52.16
40570;BME280;26270;34.428;-119.710;2023-02-14T08:03:49;101185.85;;;14.82;51.92
40570;BME280;26270;34.428;-119.710;2023-02-14T08:06:19;101179.15;;;14.78;52.43
40570;BME280;26270;34.428;-119.710;2023-02-14T08:08:47;101176.39;;;14.73;52.88
40570;BME280;26270;34.428;-119.710;2023-02-14T08:11:15;101177.22;;;14.71;52.84
40570;BME280;26270;34.428;-119.710;2023-02-14T08:13:43;101177.77;;;14.73;52.28
40570;BME280;26270;34.428;-119.710;2023-02-14T08:16:10;101184.46;;;14.69;52.36
40570;BME280;26270;34.428;-119.710;2023-02-14T08:18:41;101184.58;;;14.78;52.42
40570;BME280;26270;34.428;-119.710;2023-02-14T08:21:10;101191.72;;;14.69;52.33
40570;BME280;26270;34.428;-119.710;2023-02-14T08:23:38;101190.35;;;14.69;52.29
40570;BME280;26270;34.428;-119.710;2023-02-14T08:26:07;101194.49;;;14.77;52.01
40570;BME280;26270;34.428;-119.710;2023-02-14T08:28:35;101189.13;;;14.47;52.89
40570;BME280;26270;34.428;-119.710;2023-02-14T08:31:04;101184.44;;;14.65;52.48
40570;BME280;26270;34.428;-119.710;2023-02-14T08:33:32;101188.26;;;14.44;52.92
40570;BME280;26270;34.428;-119.710;2023-02-14T08:36:00;101189.92;;;14.57;53.02
40570;BME280;26270;34.428;-119.710;2023-02-14T08:38:29;101186.70;;;14.51;52.68
40570;BME280;26270;34.428;-119.710;2023-02-14T08:40:59;101192.23;;;14.52;53.23
40570;BME280;26270;34.428;-119.710;2023-02-14T08:43:28;101192.04;;;14.43;52.60
40570;BME280;26270;34.428;-119.710;2023-02-14T08:45:56;101191.11;;;14.51;52.58
40570;BME280;26270;34.428;-119.710;2023-02-14T08:48:24;101190.89;;;14.42;52.52
40570;BME280;26270;34.428;-119.710;2023-02-14T08:50:53;101197.87;;;14.38;52.48
40570;BME280;26270;34.428;-119.710;2023-02-14T08:53:21;101198.70;;;14.33;52.67
40570;BME280;26270;34.428;-119.710;2023-02-14T08:55:50;101200.52;;;14.35;52.24
40570;BME280;26270;34.428;-119.710;2023-02-14T08:58:19;101197.90;;;14.21;52.02
40570;BME280;26270;34.428;-119.710;2023-02-14T09:00:48;101190.65;;;14.27;51.85
40570;BME280;26270;34.428;-119.710;2023-02-14T09:03:16;101187.63;;;14.17;52.34
40570;BME280;26270;34.428;-119.710;2023-02-14T09:05:43;101190.50;;;14.30;51.88
40570;BME280;26270;34.428;-119.710;2023-02-14T09:08:12;101192.04;;;14.12;52.14
40570;BME280;26270;34.428;-119.710;2023-02-14T09:10:40;101190.72;;;14.22;52.35
40570;BME280;26270;34.428;-119.710;2023-02-14T09:13:09;101189.73;;;14.08;52.56
40570;BME280;26270;34.428;-119.710;2023-02-14T09:15:37;101188.01;;;14.04;52.69
40570;BME280;26270;34.428;-119.710;2023-02-14T09:18:05;101184.69;;;13.92;53.37
40570;BME280;26270;34.428;-119.710;2023-02-14T09:20:33;101189.88;;;14.13;53.29
40570;BME280;26270;34.428;-119.710;2023-02-14T09:23:01;101188.73;;;14.03;54.17
40570;BME280;26270;34.428;-119.710;2023-02-14T09:25:29;101193.64;;;13.73;55.29
40570;BME280;26270;34.428;-119.710;2023-02-14T09:27:57;101197.37;;;13.79;55.50
40570;BME280;26270;34.428;-119.710;2023-02-14T09:30:24;101199.93;;;13.67;55.40
40570;BME280;26270;34.428;-119.710;2023-02-14T09:32:53;101199.98;;;13.78;55.38
40570;BME280;26270;34.428;-119.710;2023-02-14T09:35:21;101200.18;;;13.46;56.18
40570;BME280;26270;34.428;-119.710;2023-02-14T09:37:49;101203.34;;;13.32;56.64
40570;BME280;26270;34.428;-119.710;2023-02-14T09:40:18;101201.33;;;13.39;56.37
40570;BME280;26270;34.428;-119.710;2023-02-14T09:42:53;101197.45;;;13.28;56.54
40570;BME280;26270;34.428;-119.710;2023-02-14T09:45:27;101188.67;;;13.22;56.55
40570;BME280;26270;34.428;-119.710;2023-02-14T09:47:59;101183.38;;;13.13;56.43
40570;BME280;26270;34.428;-119.710;2023-02-14T09:50:33;101188.88;;;13.23;56.26
40570;BME280;26270;34.428;-119.710;2023-02-14T09:53:12;101180.61;;;13.33;55.60
40570;BME280;26270;34.428;-119.710;2023-02-14T09:55:48;101187.94;;;13.30;55.70
40570;BME280;26270;34.428;-119.710;2023-02-14T09:58:21;101200.09;;;13.15;56.32
40570;BME280;26270;34.428;-119.710;2023-02-14T10:00:57;101200.00;;;13.25;55.58
40570;BME280;26270;34.428;-119.710;2023-02-14T10:03:44;101196.74;;;13.12;56.11
40570;BME280;26270;34.428;-119.710;2023-02-14T10:06:38;101189.27;;;13.10;55.81
40570;BME280;26270;34.428;-119.710;2023-02-14T10:09:14;101191.07;;;13.12;55.63
40570;BME280;26270;34.428;-119.710;2023-02-14T10:11:47;101182.62;;;13.11;54.78
40570;BME280;26270;34.428;-119.710;2023-02-14T10:14:19;101179.00;;;12.96;55.34
40570;BME280;26270;34.428;-119.710;2023-02-14T10:16:51;101176.95;;;13.01;54.90
40570;BME280;26270;34.428;-119.710;2023-02-14T10:19:22;101178.59;;;12.92;55.05
40570;BME280;26270;34.428;-119.710;2023-02-14T10:21:55;101176.50;;;12.67;55.52
40570;BME280;26270;34.428;-119.710;2023-02-14T10:24:29;101171.42;;;12.87;55.71
40570;BME280;26270;34.428;-119.710;2023-02-14T10:27:03;101172.54;;;12.75;55.78
40570;BME280;26270;34.428;-119.710;2023-02-14T10:29:33;101173.83;;;12.76;56.02
40570;BME280;26270;34.428;-119.710;2023-02-14T10:32:03;101170.45;;;12.74;56.07
40570;BME280;26270;34.428;-119.710;2023-02-14T10:34:37;101169.35;;;12.73;56.40
40570;BME280;26270;34.428;-119.710;2023-02-14T10:37:19;101169.03;;;12.51;57.15
40570;BME280;26270;34.428;-119.710;2023-02-14T10:40:21;101171.01;;;12.66;57.15
40570;BME280;26270;34.428;-119.710;2023-02-14T10:42:58;101169.96;;;12.71;56.56
40570;BME280;26270;34.428;-119.710;2023-02-14T10:45:33;101174.25;;;12.46;57.39
40570;BME280;26270;34.428;-119.710;2023-02-14T10:48:12;101168.83;;;12.38;57.62
40570;BME280;26270;34.428;-119.710;2023-02-14T10:50:49;101168.20;;;12.44;57.31
40570;BME280;26270;34.428;-119.710;2023-02-14T10:53:23;101166.62;;;12.54;56.92
40570;BME280;26270;34.428;-119.710;2023-02-14T10:55:58;101163.97;;;12.43;57.09
40570;BME280;26270;34.428;-119.710;2023-02-14T10:58:31;101152.23;;;12.33;57.53
40570;BME280;26270;34.428;-119.710;2023-02-14T11:01:04;101150.09;;;12.58;57.11
40570;BME280;26270;34.428;-119.710;2023-02-14T11:03:37;101148.48;;;12.32;57.48
40570;BME280;26270;34.428;-119.710;2023-02-14T11:06:06;101150.30;;;12.45;57.11
40570;BME280;26270;34.428;-119.710;2023-02-14T11:08:36;101146.88;;;12.55;56.10
40570;BME280;26270;34.428;-119.710;2023-02-14T11:11:12;101145.81;;;12.45;56.46
40570;BME280;26270;34.428;-119.710;2023-02-14T11:13:43;101139.60;;;12.46;56.23
40570;BME280;26270;34.428;-119.710;2023-02-14T11:16:17;101136.79;;;12.37;56.47
40570;BME280;26270;34.428;-119.710;2023-02-14T11:18:46;101139.47;;;12.46;55.61
40570;BME280;26270;34.428;-119.710;2023-02-14T11:21:15;101139.89;;;12.34;55.66
40570;BME280;26270;34.428;-119.710;2023-02-14T11:23:45;101141.16;;;12.15;55.69
40570;BME280;26270;34.428;-119.710;2023-02-14T11:26:20;101138.82;;;12.16;55.65
40570;BME280;26270;34.428;-119.710;2023-02-14T11:28:54;101139.61;;;12.09;55.50
40570;BME280;26270;34.428;-119.710;2023-02-14T11:31:29;101139.21;;;12.00;55.83
40570;BME280;26270;34.428;-119.710;2023-02-14T11:33:58;101135.12;;;12.05;55.63
40570;BME280;26270;34.428;-119.710;2023-02-14T11:36:27;101136.24;;;12.20;55.29
40570;BME280;26270;34.428;-119.710;2023-02-14T11:39:02;101132.73;;;11.92;55.92
40570;BME280;26270;34.428;-119.710;2023-02-14T11:41:47;101132.19;;;11.87;55.78
40570;BME280;26270;34.428;-119.710;2023-02-14T11:44:19;101132.93;;;11.84;55.81
40570;BME280;26270;34.428;-119.710;2023-02-14T11:46:48;101134.76;;;12.02;55.56
40570;BME280;26270;34.428;-119.710;2023-02-14T11:49:25;101131.14;;;11.85;55.83
40570;BME280;26270;34.428;-119.710;2023-02-14T11:51:54;101124.57;;;11.94;55.53
40570;BME280;26270;34.428;-119.710;2023-02-14T11:54:28;101119.61;;;11.87;55.82
40570;BME280;26270;34.428;-119.710;2023-02-14T11:57:01;101124.16;;;12.03;55.53
40570;BME280;26270;34.428;-119.710;2023-02-14T11:59:33;101122.63;;;11.97;55.62
40570;BME280;26270;34.428;-119.710;2023-02-14T12:02:14;101119.99;;;11.88;56.34
40570;BME280;26270;34.428;-119.710;2023-02-14T12:04:46;101113.99;;;11.82;56.47
40570;BME280;26270;34.428;-119.710;2023-02-14T12:07:20;101114.02;;;11.84;56.75
40570;BME280;26270;34.428;-119.710;2023-02-14T12:10:06;101117.49;;;11.79;56.62
40570;BME280;26270;34.428;-119.710;2023-02-14T12:12:35;101115.83;;;11.99;56.40
40570;BME280;26270;34.428;-119.710;2023-02-14T12:15:37;101109.98;;;11.68;56.66
40570;BME280;26270;34.428;-119.710;2023-02-14T12:18:51;101113.24;;;11.75;56.62
40570;BME280;26270;34.428;-119.710;2023-02-14T12:21:45;101106.01;;;11.68;56.84
40570;BME280;26270;34.428;-119.710;2023-02-14T12:24:21;101100.07;;;11.80;56.85
40570;BME280;26270;34.428;-119.710;2023-02-14T12:27:00;101092.04;;;11.69;56.79
40570;BME280;26270;34.428;-119.710;2023-02-14T12:29:33;101091.26;;;11.48;57.39
40570;BME280;26270;34.428;-119.710;2023-02-14T12:32:20;101093.57;;;11.62;57.29
40570;BME280;26270;34.428;-119.710;2023-02-14T12:34:51;101091.45;;;11.72;56.78
40570;BME280;26270;34.428;-119.710;2023-02-14T12:37:28;101085.96;;;11.52;56.98
40570;BME280;26270;34.428;-119.710;2023-02-14T12:40:08;101085.83;;;11.50;57.24
40570;BME280;26270;34.428;-119.710;2023-02-14T12:42:47;101079.25;;;11.47;57.80
40570;BME280;26270;34.428;-119.710;2023-02-14T12:45:24;101076.95;;;11.70;57.59
40570;BME280;26270;34.428;-119.710;2023-02-14T12:48:00;101071.89;;;11.53;57.92